createdAt,value
2022-11-14T00:00:54.926Z,8.10
2022-11-14T00:03:42.019Z,8.10
2022-11-14T00:06:28.767Z,8.10
2022-11-14T00:09:15.442Z,8.00
2022-11-14T00:12:03.551Z,8.10
2022-11-14T00:14:51.806Z,8.10
2022-11-14T00:17:38.845Z,8.10
2022-11-14T00:20:25.564Z,8.00
2022-11-14T00:23:12.497Z,8.10
2022-11-14T00:25:59.369Z,8.10
2022-11-14T00:28:47.821Z,8.10
2022-11-14T00:31:34.864Z,8.00
2022-11-14T00:34:21.608Z,8.10
2022-11-14T00:37:08.167Z,8.10
2022-11-14T00:39:54.840Z,8.10
2022-11-14T00:42:41.605Z,8.10
2022-11-14T00:45:29.655Z,8.10
2022-11-14T00:48:16.639Z,8.10
2022-11-14T00:51:03.651Z,8.10
2022-11-14T00:53:50.346Z,8.10
2022-11-14T00:56:37.486Z,8.10
2022-11-14T00:59:24.486Z,8.00
2022-11-14T01:02:12.565Z,8.00
2022-11-14T01:05:00.275Z,8.00
2022-11-14T01:07:47.557Z,8.00
2022-11-14T01:10:34.313Z,8.00
2022-11-14T01:13:21.149Z,8.00
2022-11-14T01:16:10.249Z,8.00
2022-11-14T01:18:58.282Z,8.00
2022-11-14T01:21:45.179Z,8.10
2022-11-14T01:24:33.496Z,8.00
2022-11-14T01:27:20.353Z,7.90
2022-11-14T01:30:08.250Z,8.00
2022-11-14T01:32:55.109Z,8.00
2022-11-14T01:35:43.423Z,8.00
2022-11-14T01:38:30.411Z,8.10
2022-11-14T01:41:17.919Z,7.90
2022-11-14T01:44:04.588Z,8.00
2022-11-14T01:46:57.129Z,8.00
2022-11-14T01:49:47.970Z,8.00
2022-11-14T01:52:39.747Z,8.00
2022-11-14T01:55:27.449Z,8.00
2022-11-14T01:58:15.709Z,7.90
2022-11-14T02:01:02.957Z,8.00
2022-11-14T02:03:53.023Z,8.00
2022-11-14T02:06:41.465Z,8.00
2022-11-14T02:09:33.400Z,8.00
2022-11-14T02:12:21.503Z,8.00
2022-11-14T02:15:10.545Z,8.00
2022-11-14T02:17:57.831Z,8.00
2022-11-14T02:20:45.963Z,8.00
2022-11-14T02:23:34.189Z,7.90
2022-11-14T02:26:22.649Z,7.90
2022-11-14T02:29:11.111Z,7.90
2022-11-14T02:31:57.766Z,7.90
2022-11-14T02:34:44.705Z,7.90
2022-11-14T02:37:32.761Z,7.90
2022-11-14T02:40:19.721Z,7.90
2022-11-14T02:43:06.396Z,7.90
2022-11-14T02:45:53.333Z,7.90
2022-11-14T02:48:40.252Z,7.90
2022-11-14T02:51:27.012Z,7.90
2022-11-14T02:54:15.057Z,7.90
2022-11-14T02:57:01.609Z,7.90
2022-11-14T02:59:48.067Z,7.90
2022-11-14T03:02:34.781Z,7.90
2022-11-14T03:05:21.657Z,7.90
2022-11-14T03:08:08.938Z,7.80
2022-11-14T03:10:57.479Z,7.80
2022-11-14T03:13:44.267Z,7.80
2022-11-14T03:16:31.158Z,7.80
2022-11-14T03:19:18.105Z,7.80
2022-11-14T03:22:05.231Z,7.80
2022-11-14T03:24:52.070Z,7.80
2022-11-14T03:27:39.987Z,7.80
2022-11-14T03:30:27.039Z,7.70
2022-11-14T03:33:13.636Z,7.80
2022-11-14T03:36:00.449Z,7.70
2022-11-14T03:38:48.020Z,7.70
2022-11-14T03:41:34.688Z,7.80
2022-11-14T03:44:23.143Z,7.70
2022-11-14T03:47:09.826Z,7.70
2022-11-14T03:49:56.507Z,7.80
2022-11-14T03:52:43.198Z,7.80
2022-11-14T03:55:30.197Z,7.80
2022-11-14T03:58:16.933Z,7.80
2022-11-14T04:01:05.207Z,7.80
2022-11-14T04:03:51.933Z,7.80
2022-11-14T04:06:38.954Z,7.70
2022-11-14T04:09:25.765Z,7.60
2022-11-14T04:12:15.693Z,7.70
2022-11-14T04:15:02.748Z,7.60
2022-11-14T04:17:50.673Z,7.60
2022-11-14T04:20:37.515Z,7.60
2022-11-14T04:23:24.425Z,7.50
2022-11-14T04:26:14.582Z,7.50
2022-11-14T04:29:01.600Z,7.50
2022-11-14T04:31:48.413Z,7.50
2022-11-14T04:34:36.521Z,7.50
2022-11-14T04:37:23.377Z,7.50
2022-11-14T04:40:11.160Z,7.50
2022-11-14T04:42:57.720Z,7.40
2022-11-14T04:45:44.614Z,7.40
2022-11-14T04:48:31.619Z,7.40
2022-11-14T04:51:19.988Z,7.40
2022-11-14T04:54:06.887Z,7.40
2022-11-14T04:56:53.580Z,7.40
2022-11-14T04:59:40.168Z,7.40
2022-11-14T05:02:26.758Z,7.50
2022-11-14T05:05:13.332Z,7.40
2022-11-14T05:08:01.174Z,7.40
2022-11-14T05:10:47.790Z,7.40
2022-11-14T05:13:34.483Z,7.40
2022-11-14T05:16:21.495Z,7.40
2022-11-14T05:19:08.121Z,7.40
2022-11-14T05:21:54.807Z,7.40
2022-11-14T05:24:42.748Z,7.50
2022-11-14T05:27:30.485Z,7.40
2022-11-14T05:30:17.860Z,7.50
2022-11-14T05:33:04.586Z,7.40
2022-11-14T05:35:51.385Z,7.40
2022-11-14T05:38:38.223Z,7.40
2022-11-14T05:41:26.776Z,7.40
2022-11-14T05:44:13.683Z,7.30
2022-11-14T05:47:00.513Z,7.40
2022-11-14T05:49:47.555Z,7.40
2022-11-14T05:52:34.378Z,7.40
2022-11-14T05:55:24.866Z,7.40
2022-11-14T05:58:13.667Z,7.40
2022-11-14T06:01:19.103Z,7.40
2022-11-14T06:04:07.737Z,7.40
2022-11-14T06:06:54.834Z,7.40
2022-11-14T06:09:41.612Z,7.40
2022-11-14T06:12:28.280Z,7.40
2022-11-14T06:15:16.393Z,7.40
2022-11-14T06:18:03.265Z,7.40
2022-11-14T06:20:49.952Z,7.40
2022-11-14T06:23:37.184Z,7.40
2022-11-14T06:26:25.575Z,7.40
2022-11-14T06:29:17.735Z,7.40
2022-11-14T06:32:06.181Z,7.40
2022-11-14T06:34:52.860Z,7.50
2022-11-14T06:37:39.699Z,7.50
2022-11-14T06:40:26.284Z,7.50
2022-11-14T06:43:13.303Z,7.50
2022-11-14T06:46:00.054Z,7.50
2022-11-14T06:48:48.984Z,7.50
2022-11-14T06:51:35.734Z,7.50
2022-11-14T06:54:22.610Z,7.50
2022-11-14T06:57:09.655Z,7.50
2022-11-14T06:59:56.373Z,7.50
2022-11-14T07:02:47.142Z,7.50
2022-11-14T07:05:38.769Z,7.60
2022-11-14T07:08:25.483Z,7.60
2022-11-14T07:11:22.801Z,7.60
2022-11-14T07:14:10.781Z,7.60
2022-11-14T07:16:57.434Z,7.60
2022-11-14T07:20:01.917Z,7.60
2022-11-14T07:22:50.327Z,7.60
2022-11-14T07:25:37.443Z,7.60
2022-11-14T07:28:30.081Z,7.60
2022-11-14T07:31:18.631Z,7.60
2022-11-14T07:34:06.179Z,7.60
2022-11-14T07:36:53.186Z,7.60
2022-11-14T07:39:41.854Z,7.60
2022-11-14T07:42:30.887Z,7.60
2022-11-14T07:45:17.810Z,7.60
2022-11-14T07:48:05.133Z,7.70
2022-11-14T07:50:51.849Z,7.60
2022-11-14T07:53:38.550Z,7.60
2022-11-14T07:56:29.661Z,7.70
2022-11-14T07:59:17.545Z,7.70
2022-11-14T08:02:05.164Z,7.70
2022-11-14T08:04:52.048Z,7.70
2022-11-14T08:07:38.793Z,7.60
2022-11-14T08:10:28.608Z,7.70
2022-11-14T08:13:36.132Z,7.80
2022-11-14T08:16:23.183Z,7.70
2022-11-14T08:19:09.859Z,7.60
2022-11-14T08:22:00.948Z,7.60
2022-11-14T08:24:48.102Z,7.70
2022-11-14T08:27:35.116Z,7.60
2022-11-14T08:30:23.434Z,7.70
2022-11-14T08:33:10.358Z,7.70
2022-11-14T08:35:57.500Z,7.70
2022-11-14T08:38:44.804Z,7.80
2022-11-14T08:41:31.850Z,7.80
2022-11-14T08:44:18.780Z,7.80
2022-11-14T08:47:07.510Z,7.80
2022-11-14T08:49:54.368Z,7.80
2022-11-14T08:52:45.180Z,7.70
2022-11-14T08:55:31.876Z,7.70
2022-11-14T08:58:21.742Z,7.80
2022-11-14T09:01:10.653Z,7.80
2022-11-14T09:04:00.147Z,7.80
2022-11-14T09:06:54.483Z,7.80
2022-11-14T09:09:41.687Z,7.90
2022-11-14T09:12:28.921Z,7.80
2022-11-14T09:15:16.231Z,7.90
2022-11-14T09:18:05.373Z,7.80
2022-11-14T09:20:54.009Z,7.80
2022-11-14T09:23:40.840Z,8.00
2022-11-14T09:26:28.430Z,7.90
2022-11-14T09:29:16.046Z,7.90
2022-11-14T09:32:02.955Z,7.90
2022-11-14T09:34:50.279Z,8.00
2022-11-14T09:37:41.049Z,8.00
2022-11-14T09:40:32.696Z,8.10
2022-11-14T09:43:51.438Z,8.10
2022-11-14T09:46:42.454Z,8.10
2022-11-14T09:49:36.070Z,8.10
2022-11-14T09:52:36.404Z,8.10
2022-11-14T09:55:46.153Z,8.10
2022-11-14T09:58:33.451Z,8.00
2022-11-14T10:01:41.597Z,8.00
2022-11-14T10:04:42.150Z,8.10
2022-11-14T10:07:50.921Z,8.10
2022-11-14T10:10:57.664Z,8.10
2022-11-14T10:14:04.727Z,8.30
2022-11-14T10:16:59.604Z,8.10
2022-11-14T10:20:12.280Z,8.10
2022-11-14T10:23:14.842Z,8.10
2022-11-14T10:26:16.100Z,8.20
2022-11-14T10:30:01.446Z,8.10
2022-11-14T10:33:14.399Z,8.10
2022-11-14T10:36:09.738Z,8.10
2022-11-14T10:39:40.232Z,8.40
2022-11-14T10:42:40.745Z,8.10
2022-11-14T10:45:30.551Z,8.10
2022-11-14T10:48:39.460Z,8.10
2022-11-14T10:51:50.848Z,8.10
2022-11-14T10:54:43.394Z,8.10
2022-11-14T10:57:34.259Z,8.10
2022-11-14T11:00:50.634Z,8.20
2022-11-14T11:03:47.744Z,8.10
2022-11-14T11:07:36.371Z,8.10
2022-11-14T11:10:42.271Z,8.00
2022-11-14T11:13:37.215Z,8.00
2022-11-14T11:16:26.266Z,8.00
2022-11-14T11:19:25.249Z,8.00
2022-11-14T11:22:39.936Z,8.00
2022-11-14T11:25:35.123Z,8.10
2022-11-14T11:28:23.661Z,7.50
2022-11-14T11:31:13.104Z,8.10
2022-11-14T11:34:05.196Z,8.20
2022-11-14T11:36:58.406Z,8.20
2022-11-14T11:40:07.763Z,8.20
2022-11-14T11:47:02.647Z,8.20
2022-11-14T11:50:26.068Z,8.20
2022-11-14T11:53:52.621Z,8.20
2022-11-14T11:56:48.031Z,8.20
2022-11-14T11:59:46.878Z,8.20
2022-11-14T12:03:25.189Z,8.20
2022-11-14T12:07:22.659Z,8.20
2022-11-14T12:11:02.316Z,8.10
2022-11-14T12:15:03.633Z,8.30
2022-11-14T12:18:41.475Z,8.10
2022-11-14T12:26:17.688Z,8.10
2022-11-14T12:29:25.099Z,8.10
2022-11-14T12:32:35.780Z,8.00
2022-11-14T12:35:30.918Z,8.10
2022-11-14T12:38:19.871Z,8.10
2022-11-14T12:50:45.813Z,8.10
2022-11-14T13:03:15.017Z,8.00
2022-11-14T13:06:58.031Z,8.00
2022-11-14T13:27:13.004Z,7.60
2022-11-14T13:39:40.830Z,7.60
2022-11-14T13:43:00.674Z,7.60
2022-11-14T14:15:31.762Z,7.30
2022-11-14T14:27:53.748Z,7.30
2022-11-14T15:17:36.057Z,7.10
2022-11-14T15:21:13.308Z,7.00
2022-11-14T15:28:57.661Z,7.00
2022-11-14T15:32:01.883Z,7.10
2022-11-14T15:35:37.154Z,7.00
2022-11-14T15:59:21.549Z,6.90
2022-11-14T16:18:51.697Z,6.80
2022-11-14T16:22:39.053Z,6.70
2022-11-14T16:34:03.841Z,6.70
2022-11-14T17:41:23.515Z,6.50
2022-11-14T18:36:08.689Z,6.40
2022-11-14T18:39:25.305Z,6.40
2022-11-14T18:52:19.743Z,6.30
2022-11-14T18:55:54.700Z,6.30
2022-11-14T19:10:40.678Z,6.20
2022-11-14T19:51:37.781Z,6.20
2022-11-14T20:07:24.737Z,6.20
2022-11-14T20:37:20.489Z,6.20
2022-11-14T21:14:18.814Z,6.20
2022-11-14T22:18:02.187Z,6.40
2022-11-14T22:24:58.649Z,6.00
2022-11-14T22:27:48.736Z,5.90
2022-11-14T22:31:20.440Z,6.00
2022-11-14T22:42:27.466Z,5.90
2022-11-14T22:45:24.142Z,5.90
2022-11-14T23:06:05.784Z,5.90
2022-11-14T23:27:51.565Z,5.90
